SAS4040 ENZV-ENGM
Flight info
| Callsign | SAS4040 |
|---|---|
| Flight time | N/A |
| Altitude | 33000 |
| Route | UPLEV DCT OSKOM DCT RIPAM |
| Aircraft | A319/M-SDE3FGHIRWY/LB1 |
Departure
| Time | 2026-03-24 08:43 |
|---|---|
| Airport | Stavanger Airport, Sola (ENZV) |
Arrival
| Time | N/A |
|---|---|
| Airport | Oslo-Gardermoen International Airport (ENGM) |
| Time | Latitude | Longitude | Altitude | Speed | Heading |
|---|---|---|---|---|---|
| 2026-03-24 08:14 | 58.88135 | 5.63009 | 36 ft | 0 kts | 314° |
| 2026-03-24 08:32 | 58.88132 | 5.63016 | 36 ft | 2 kts | 314° |
| 2026-03-24 08:33 | 58.88118 | 5.63042 | 36 ft | 3 kts | 314° |
| 2026-03-24 08:33 | 58.88104 | 5.63070 | 36 ft | 3 kts | 314° |
| 2026-03-24 08:33 | 58.88090 | 5.63097 | 32 ft | 3 kts | 319° |
| 2026-03-24 08:33 | 58.88074 | 5.63121 | 34 ft | 3 kts | 329° |
| 2026-03-24 08:34 | 58.88057 | 5.63138 | 34 ft | 3 kts | 346° |
| 2026-03-24 08:34 | 58.88046 | 5.63143 | 34 ft | 0 kts | 354° |
| 2026-03-24 08:37 | 58.88057 | 5.63143 | 35 ft | 3 kts | 7° |
| 2026-03-24 08:37 | 58.88078 | 5.63186 | 37 ft | 6 kts | 52° |
| 2026-03-24 08:37 | 58.88117 | 5.63249 | 37 ft | 9 kts | 32° |
| 2026-03-24 08:37 | 58.88182 | 5.63298 | 36 ft | 12 kts | 10° |
| 2026-03-24 08:38 | 58.88267 | 5.63320 | 33 ft | 13 kts | 43° |
| 2026-03-24 08:38 | 58.88338 | 5.63427 | 34 ft | 15 kts | 3° |
| 2026-03-24 08:38 | 58.88449 | 5.63426 | 33 ft | 17 kts | 358° |
| 2026-03-24 08:38 | 58.88564 | 5.63421 | 30 ft | 16 kts | 359° |
| 2026-03-24 08:39 | 58.88674 | 5.63417 | 31 ft | 15 kts | 359° |
| 2026-03-24 08:39 | 58.88776 | 5.63412 | 30 ft | 14 kts | 358° |
| 2026-03-24 08:39 | 58.88870 | 5.63414 | 29 ft | 13 kts | 1° |
| 2026-03-24 08:39 | 58.88956 | 5.63409 | 28 ft | 12 kts | 0° |
| 2026-03-24 08:40 | 58.89036 | 5.63408 | 28 ft | 11 kts | 359° |
| 2026-03-24 08:40 | 58.89112 | 5.63406 | 27 ft | 11 kts | 359° |
| 2026-03-24 08:40 | 58.89187 | 5.63404 | 29 ft | 10 kts | 359° |
| 2026-03-24 08:40 | 58.89257 | 5.63401 | 26 ft | 10 kts | 359° |
| 2026-03-24 08:41 | 58.89323 | 5.63415 | 26 ft | 9 kts | 27° |
| 2026-03-24 08:41 | 58.89345 | 5.63481 | 25 ft | 9 kts | 71° |
| 2026-03-24 08:41 | 58.89345 | 5.63584 | 25 ft | 7 kts | 89° |
| 2026-03-24 08:41 | 58.89346 | 5.63657 | 26 ft | 4 kts | 93° |
| 2026-03-24 08:42 | 58.89314 | 5.63725 | 26 ft | 11 kts | 156° |
| 2026-03-24 08:42 | 58.89173 | 5.63738 | 28 ft | 41 kts | 179° |
| 2026-03-24 08:42 | 58.88674 | 5.63752 | 32 ft | 101 kts | 179° |
| 2026-03-24 08:42 | 58.87792 | 5.63759 | 151 ft | 142 kts | 183° |
| 2026-03-24 08:43 | 58.86833 | 5.63769 | 921 ft | 136 kts | 184° |
| 2026-03-24 08:43 | 58.85872 | 5.63800 | 1550 ft | 143 kts | 191° |
| 2026-03-24 08:43 | 58.84803 | 5.63815 | 1868 ft | 165 kts | 190° |
| 2026-03-24 08:43 | 58.83578 | 5.63832 | 2210 ft | 188 kts | 189° |
| 2026-03-24 08:44 | 58.82208 | 5.63860 | 2592 ft | 209 kts | 187° |
| 2026-03-24 08:44 | 58.80681 | 5.63899 | 3043 ft | 232 kts | 187° |
| 2026-03-24 08:44 | 58.78993 | 5.63946 | 3649 ft | 251 kts | 186° |
| 2026-03-24 08:44 | 58.77223 | 5.64011 | 4627 ft | 256 kts | 185° |
| 2026-03-24 08:45 | 58.75431 | 5.64087 | 5673 ft | 258 kts | 184° |
| 2026-03-24 08:45 | 58.73627 | 5.64161 | 6667 ft | 261 kts | 185° |
| 2026-03-24 08:45 | 58.71803 | 5.64326 | 7645 ft | 268 kts | 178° |
| 2026-03-24 08:45 | 58.70051 | 5.65855 | 8562 ft | 294 kts | 148° |
| 2026-03-24 08:46 | 58.68845 | 5.69196 | 9437 ft | 320 kts | 116° |
| 2026-03-24 08:46 | 58.68610 | 5.73568 | 10202 ft | 339 kts | 83° |
| 2026-03-24 08:46 | 58.69480 | 5.77783 | 10959 ft | 344 kts | 50° |
| 2026-03-24 08:46 | 58.71217 | 5.80898 | 11659 ft | 343 kts | 26° |
| 2026-03-24 08:47 | 58.73412 | 5.82788 | 11964 ft | 352 kts | 5° |
| 2026-03-24 08:47 | 58.75846 | 5.83213 | 12289 ft | 351 kts | 345° |
| 2026-03-24 08:47 | 58.78290 | 5.82695 | 12912 ft | 360 kts | 347° |
| 2026-03-24 08:47 | 58.80827 | 5.82626 | 13599 ft | 367 kts | 350° |
| 2026-03-24 08:48 | 58.83417 | 5.83070 | 14231 ft | 383 kts | 2° |
| 2026-03-24 08:48 | 58.85967 | 5.84725 | 14860 ft | 401 kts | 18° |
| 2026-03-24 08:48 | 58.88374 | 5.87760 | 15508 ft | 418 kts | 35° |
| 2026-03-24 08:48 | 58.90327 | 5.91942 | 16173 ft | 431 kts | 52° |
| 2026-03-24 08:49 | 58.91825 | 5.97043 | 16700 ft | 440 kts | 60° |
| 2026-03-24 08:49 | 58.93255 | 6.02326 | 17276 ft | 446 kts | 60° |
| 2026-03-24 08:49 | 58.94698 | 6.07678 | 17850 ft | 452 kts | 60° |
| 2026-03-24 08:49 | 58.96159 | 6.13112 | 18380 ft | 457 kts | 59° |
| 2026-03-24 08:50 | 58.97633 | 6.18594 | 18917 ft | 461 kts | 59° |
| 2026-03-24 08:50 | 58.99079 | 6.24167 | 19447 ft | 467 kts | 64° |
| 2026-03-24 08:50 | 59.00227 | 6.30129 | 19973 ft | 474 kts | 69° |
| 2026-03-24 08:50 | 59.01305 | 6.36214 | 20496 ft | 478 kts | 69° |
| 2026-03-24 08:51 | 59.02395 | 6.42342 | 21000 ft | 483 kts | 68° |
| 2026-03-24 08:51 | 59.03501 | 6.48555 | 21501 ft | 488 kts | 68° |
| 2026-03-24 08:51 | 59.04613 | 6.54817 | 22001 ft | 493 kts | 68° |
| 2026-03-24 08:51 | 59.05731 | 6.61143 | 22483 ft | 497 kts | 68° |
| 2026-03-24 08:52 | 59.06853 | 6.67526 | 22931 ft | 502 kts | 68° |
| 2026-03-24 08:52 | 59.07983 | 6.73982 | 23375 ft | 507 kts | 68° |
| 2026-03-24 08:52 | 59.09117 | 6.80496 | 23760 ft | 510 kts | 68° |
| 2026-03-24 08:52 | 59.10162 | 6.87121 | 24147 ft | 516 kts | 74° |
| 2026-03-24 08:53 | 59.10832 | 6.94020 | 24540 ft | 520 kts | 79° |
| 2026-03-24 08:53 | 59.11440 | 7.00956 | 24916 ft | 523 kts | 79° |
| 2026-03-24 08:53 | 59.12061 | 7.07957 | 25325 ft | 526 kts | 78° |
| 2026-03-24 08:53 | 59.12677 | 7.14900 | 25730 ft | 529 kts | 78° |
| 2026-03-24 08:54 | 59.13305 | 7.22006 | 26072 ft | 533 kts | 79° |
| 2026-03-24 08:54 | 59.13929 | 7.29145 | 26446 ft | 536 kts | 79° |
| 2026-03-24 08:54 | 59.14554 | 7.36328 | 26817 ft | 539 kts | 79° |
| 2026-03-24 08:54 | 59.15174 | 7.43554 | 27205 ft | 542 kts | 79° |
| 2026-03-24 08:55 | 59.15791 | 7.50824 | 27574 ft | 545 kts | 79° |
| 2026-03-24 08:55 | 59.16408 | 7.58140 | 28020 ft | 549 kts | 79° |
| 2026-03-24 08:55 | 59.17025 | 7.65499 | 28377 ft | 552 kts | 79° |
| 2026-03-24 08:55 | 59.17643 | 7.72899 | 28613 ft | 554 kts | 79° |
| 2026-03-24 08:56 | 59.18258 | 7.80296 | 29127 ft | 552 kts | 79° |
| 2026-03-24 08:56 | 59.18869 | 7.87696 | 29528 ft | 554 kts | 79° |
| 2026-03-24 08:56 | 59.19477 | 7.95134 | 29826 ft | 556 kts | 79° |
| 2026-03-24 08:56 | 59.20082 | 8.02599 | 30114 ft | 558 kts | 79° |
| 2026-03-24 08:57 | 59.20683 | 8.10081 | 30412 ft | 559 kts | 79° |
| 2026-03-24 08:57 | 59.21280 | 8.17585 | 30721 ft | 560 kts | 79° |
| 2026-03-24 08:57 | 59.21869 | 8.25080 | 31133 ft | 558 kts | 79° |
| 2026-03-24 08:57 | 59.22452 | 8.32552 | 31542 ft | 556 kts | 79° |
| 2026-03-24 08:58 | 59.23029 | 8.39998 | 31874 ft | 552 kts | 79° |
| 2026-03-24 08:58 | 59.23605 | 8.47376 | 32389 ft | 545 kts | 80° |
| 2026-03-24 08:58 | 59.24169 | 8.54634 | 32545 ft | 538 kts | 79° |
| 2026-03-24 08:58 | 59.24714 | 8.61781 | 32564 ft | 528 kts | 80° |
| 2026-03-24 08:59 | 59.25763 | 8.75913 | 32554 ft | 524 kts | 80° |
| 2026-03-24 08:59 | 59.26806 | 8.90022 | 32555 ft | 524 kts | 80° |
| 2026-03-24 09:00 | 59.27844 | 9.04121 | 32531 ft | 524 kts | 80° |
| 2026-03-24 09:00 | 59.28859 | 9.18194 | 32532 ft | 521 kts | 81° |
| 2026-03-24 09:01 | 59.29852 | 9.32146 | 31824 ft | 523 kts | 81° |
| 2026-03-24 09:01 | 59.30354 | 9.39312 | 30459 ft | 540 kts | 81° |
| 2026-03-24 09:01 | 59.30863 | 9.46647 | 29417 ft | 547 kts | 81° |
| 2026-03-24 09:02 | 59.31373 | 9.54032 | 28505 ft | 546 kts | 81° |
| 2026-03-24 09:02 | 59.32158 | 9.61187 | 28239 ft | 530 kts | 68° |
| 2026-03-24 09:02 | 59.33682 | 9.67584 | 28088 ft | 506 kts | 52° |
| 2026-03-24 09:02 | 59.35794 | 9.72848 | 27919 ft | 479 kts | 37° |
| 2026-03-24 09:03 | 59.38293 | 9.76814 | 27772 ft | 446 kts | 22° |
| 2026-03-24 09:03 | 59.40944 | 9.79459 | 27500 ft | 414 kts | 9° |
| 2026-03-24 09:03 | 59.43630 | 9.81084 | 26930 ft | 398 kts | 4° |